ROT421 LGIR-LROP
Flight info
| Callsign | ROT421 |
|---|---|
| Flight time | N/A |
| Altitude | 38000 |
| Route | EPALO M749 DIRMI UM749 MIL UL617 KEA/N0457F370 DCT NEVRA DCT KOROS/N0453F380 DCT PEREN UN133 ATFIR/N0452F370 DCT RUMEN DCT SOPIS DCT SOMOV DCT SORDU |
| Aircraft | B738/M-SDE2E3FGHIRWXY/LB1 |
Departure
| Time | 2026-04-28 16:21 |
|---|---|
| Airport | Heraklion International Nikos Kazantzakis Airport (LGIR) |
Arrival
| Time | N/A |
|---|---|
| Airport | Bucharest Henri Coandă International Airport (LROP) |
| Time | Latitude | Longitude | Altitude | Speed | Heading |
|---|---|---|---|---|---|
| 2026-04-28 16:03 | 35.33889 | 25.17154 | 90 ft | 0 kts | 314° |
| 2026-04-28 16:14 | 35.33891 | 25.17151 | 90 ft | 1 kts | 314° |
| 2026-04-28 16:14 | 35.33902 | 25.17142 | 91 ft | 6 kts | 328° |
| 2026-04-28 16:15 | 35.33916 | 25.17136 | 89 ft | 0 kts | 351° |
| 2026-04-28 16:16 | 35.33933 | 25.17202 | 90 ft | 8 kts | 95° |
| 2026-04-28 16:16 | 35.33928 | 25.17274 | 90 ft | 10 kts | 96° |
| 2026-04-28 16:17 | 35.33912 | 25.17501 | 92 ft | 15 kts | 95° |
| 2026-04-28 16:17 | 35.33902 | 25.17640 | 91 ft | 18 kts | 95° |
| 2026-04-28 16:17 | 35.33890 | 25.17806 | 91 ft | 20 kts | 94° |
| 2026-04-28 16:17 | 35.33879 | 25.17979 | 93 ft | 20 kts | 95° |
| 2026-04-28 16:18 | 35.33867 | 25.18150 | 93 ft | 21 kts | 95° |
| 2026-04-28 16:18 | 35.33855 | 25.18324 | 92 ft | 21 kts | 95° |
| 2026-04-28 16:18 | 35.33843 | 25.18499 | 93 ft | 21 kts | 95° |
| 2026-04-28 16:18 | 35.33830 | 25.18687 | 89 ft | 23 kts | 94° |
| 2026-04-28 16:19 | 35.33816 | 25.18878 | 89 ft | 22 kts | 95° |
| 2026-04-28 16:19 | 35.33856 | 25.18999 | 88 ft | 12 kts | 49° |
| 2026-04-28 16:19 | 35.33897 | 25.19037 | 89 ft | 6 kts | 347° |
| 2026-04-28 16:19 | 35.33908 | 25.18995 | 89 ft | 0 kts | 275° |
| 2026-04-28 16:20 | 35.33909 | 25.18975 | 87 ft | 3 kts | 274° |
| 2026-04-28 16:20 | 35.33920 | 25.18810 | 88 ft | 50 kts | 275° |
| 2026-04-28 16:21 | 35.33971 | 25.18073 | 92 ft | 121 kts | 275° |
| 2026-04-28 16:21 | 35.34056 | 25.16799 | 211 ft | 168 kts | 275° |
| 2026-04-28 16:21 | 35.34239 | 25.15299 | 806 ft | 186 kts | 280° |
| 2026-04-28 16:21 | 35.34846 | 25.13931 | 1650 ft | 187 kts | 325° |
| 2026-04-28 16:22 | 35.36066 | 25.13407 | 2382 ft | 196 kts | 347° |
| 2026-04-28 16:22 | 35.37492 | 25.13034 | 2641 ft | 222 kts | 347° |
| 2026-04-28 16:22 | 35.39066 | 25.12605 | 2923 ft | 239 kts | 346° |
| 2026-04-28 16:22 | 35.40703 | 25.12124 | 3424 ft | 244 kts | 345° |
| 2026-04-28 16:23 | 35.42356 | 25.11606 | 3995 ft | 246 kts | 345° |
| 2026-04-28 16:23 | 35.44020 | 25.11057 | 4575 ft | 248 kts | 344° |
| 2026-04-28 16:23 | 35.45691 | 25.10486 | 5126 ft | 251 kts | 343° |
| 2026-04-28 16:23 | 35.47387 | 25.09892 | 5648 ft | 257 kts | 343° |
| 2026-04-28 16:24 | 35.49168 | 25.09257 | 5965 ft | 274 kts | 343° |
| 2026-04-28 16:24 | 35.51023 | 25.08587 | 6633 ft | 280 kts | 343° |
| 2026-04-28 16:24 | 35.52893 | 25.07906 | 7490 ft | 280 kts | 343° |
| 2026-04-28 16:24 | 35.54774 | 25.07218 | 8284 ft | 283 kts | 343° |
| 2026-04-28 16:25 | 35.56670 | 25.06521 | 9034 ft | 287 kts | 343° |
| 2026-04-28 16:25 | 35.58593 | 25.05813 | 9776 ft | 290 kts | 343° |
| 2026-04-28 16:25 | 35.60520 | 25.05102 | 10401 ft | 298 kts | 343° |
| 2026-04-28 16:25 | 35.62577 | 25.04341 | 10655 ft | 320 kts | 343° |
| 2026-04-28 16:26 | 35.64788 | 25.03523 | 10831 ft | 342 kts | 343° |
| 2026-04-28 16:26 | 35.67135 | 25.02654 | 11025 ft | 362 kts | 343° |
| 2026-04-28 16:26 | 35.69582 | 25.01748 | 11496 ft | 371 kts | 343° |
| 2026-04-28 16:26 | 35.72063 | 25.00819 | 12144 ft | 374 kts | 341° |
| 2026-04-28 16:27 | 35.74526 | 24.99747 | 12833 ft | 377 kts | 339° |
| 2026-04-28 16:27 | 35.76977 | 24.98586 | 13498 ft | 380 kts | 338° |
| 2026-04-28 16:27 | 35.81955 | 24.96181 | 14818 ft | 388 kts | 338° |
| 2026-04-28 16:28 | 35.84485 | 24.94971 | 15491 ft | 391 kts | 338° |
| 2026-04-28 16:28 | 35.86178 | 24.94167 | 15917 ft | 394 kts | 339° |
| 2026-04-28 16:28 | 35.89591 | 24.92554 | 16766 ft | 399 kts | 339° |
| 2026-04-28 16:28 | 35.92224 | 24.91313 | 17375 ft | 402 kts | 339° |
| 2026-04-28 16:29 | 35.97472 | 24.88839 | 18529 ft | 410 kts | 339° |
| 2026-04-28 16:29 | 36.02854 | 24.86300 | 19645 ft | 416 kts | 339° |
| 2026-04-28 16:30 | 36.05574 | 24.85014 | 20184 ft | 420 kts | 339° |
| 2026-04-28 16:30 | 36.08311 | 24.83719 | 20702 ft | 423 kts | 339° |
| 2026-04-28 16:30 | 36.11069 | 24.82411 | 21201 ft | 426 kts | 339° |
| 2026-04-28 16:30 | 36.13851 | 24.81091 | 21678 ft | 429 kts | 339° |
| 2026-04-28 16:31 | 36.16649 | 24.79761 | 22140 ft | 432 kts | 339° |
| 2026-04-28 16:31 | 36.19473 | 24.78419 | 22585 ft | 435 kts | 339° |
| 2026-04-28 16:31 | 36.22309 | 24.77069 | 23031 ft | 438 kts | 339° |
| 2026-04-28 16:31 | 36.25167 | 24.75708 | 23446 ft | 441 kts | 339° |
| 2026-04-28 16:32 | 36.28038 | 24.74340 | 23850 ft | 444 kts | 339° |
| 2026-04-28 16:32 | 36.33804 | 24.71589 | 24625 ft | 449 kts | 339° |
| 2026-04-28 16:32 | 36.36686 | 24.70212 | 25548 ft | 436 kts | 339° |
| 2026-04-28 16:33 | 36.39530 | 24.68853 | 25981 ft | 440 kts | 339° |
| 2026-04-28 16:33 | 36.40498 | 24.68390 | 25988 ft | 444 kts | 339° |
| 2026-04-28 16:33 | 36.45381 | 24.66052 | 26117 ft | 460 kts | 339° |
| 2026-04-28 16:33 | 36.48384 | 24.64613 | 26351 ft | 464 kts | 339° |
| 2026-04-28 16:34 | 36.51365 | 24.63183 | 26707 ft | 465 kts | 339° |
| 2026-04-28 16:34 | 36.54391 | 24.61731 | 27064 ft | 466 kts | 339° |
| 2026-04-28 16:34 | 36.57425 | 24.60273 | 27367 ft | 468 kts | 338° |
| 2026-04-28 16:34 | 36.60475 | 24.58807 | 27643 ft | 470 kts | 338° |
| 2026-04-28 16:35 | 36.62504 | 24.57830 | 27818 ft | 472 kts | 338° |
| 2026-04-28 16:35 | 36.65573 | 24.56352 | 28088 ft | 474 kts | 338° |
| 2026-04-28 16:35 | 36.68654 | 24.54867 | 28355 ft | 476 kts | 338° |
| 2026-04-28 16:35 | 36.71747 | 24.53376 | 28620 ft | 477 kts | 338° |
| 2026-04-28 16:36 | 36.74855 | 24.51913 | 28941 ft | 477 kts | 341° |
| 2026-04-28 16:36 | 36.78055 | 24.50828 | 29330 ft | 476 kts | 347° |
| 2026-04-28 16:36 | 36.81288 | 24.49965 | 29732 ft | 474 kts | 348° |
| 2026-04-28 16:36 | 36.84522 | 24.49154 | 30089 ft | 474 kts | 348° |
| 2026-04-28 16:37 | 36.87753 | 24.48338 | 30424 ft | 474 kts | 348° |
| 2026-04-28 16:37 | 36.90987 | 24.47497 | 30772 ft | 473 kts | 348° |
| 2026-04-28 16:37 | 36.94199 | 24.46638 | 31132 ft | 472 kts | 347° |
| 2026-04-28 16:38 | 37.00571 | 24.44899 | 31794 ft | 471 kts | 347° |
| 2026-04-28 16:38 | 37.03767 | 24.44023 | 32125 ft | 470 kts | 347° |
| 2026-04-28 16:38 | 37.06965 | 24.43148 | 32437 ft | 469 kts | 347° |
| 2026-04-28 16:38 | 37.10157 | 24.42275 | 32756 ft | 469 kts | 347° |
| 2026-04-28 16:39 | 37.13340 | 24.41404 | 33058 ft | 468 kts | 347° |
| 2026-04-28 16:39 | 37.16538 | 24.40527 | 33358 ft | 468 kts | 347° |
| 2026-04-28 16:39 | 37.19712 | 24.39655 | 33654 ft | 467 kts | 347° |
| 2026-04-28 16:39 | 37.22890 | 24.38785 | 33953 ft | 466 kts | 347° |
| 2026-04-28 16:40 | 37.26023 | 24.37938 | 34233 ft | 466 kts | 347° |
| 2026-04-28 16:40 | 37.29196 | 24.37083 | 34497 ft | 465 kts | 347° |
| 2026-04-28 16:40 | 37.32359 | 24.36231 | 34775 ft | 465 kts | 347° |
| 2026-04-28 16:40 | 37.35518 | 24.35379 | 35039 ft | 464 kts | 347° |
| 2026-04-28 16:41 | 37.38677 | 24.34524 | 35296 ft | 464 kts | 347° |
| 2026-04-28 16:41 | 37.41832 | 24.33669 | 35550 ft | 463 kts | 347° |
| 2026-04-28 16:41 | 37.44980 | 24.32815 | 35802 ft | 463 kts | 347° |
| 2026-04-28 16:41 | 37.48128 | 24.31960 | 36046 ft | 462 kts | 347° |
| 2026-04-28 16:42 | 37.51275 | 24.31119 | 36268 ft | 462 kts | 350° |
| 2026-04-28 16:42 | 37.54470 | 24.30736 | 36446 ft | 463 kts | 0° |
| 2026-04-28 16:42 | 37.57337 | 24.30946 | 36628 ft | 463 kts | 7° |
| 2026-04-28 16:42 | 37.60262 | 24.31242 | 36811 ft | 462 kts | 358° |
| 2026-04-28 16:43 | 37.63477 | 24.31008 | 37001 ft | 462 kts | 355° |
| 2026-04-28 16:43 | 37.69899 | 24.30164 | 37053 ft | 470 kts | 353° |
| 2026-04-28 16:44 | 37.76426 | 24.29289 | 37218 ft | 472 kts | 354° |
| 2026-04-28 16:44 | 37.79702 | 24.28889 | 37381 ft | 472 kts | 354° |
| 2026-04-28 16:44 | 37.82974 | 24.28509 | 37543 ft | 471 kts | 354° |
| 2026-04-28 16:44 | 37.86246 | 24.28143 | 37672 ft | 471 kts | 355° |
| 2026-04-28 16:45 | 37.89515 | 24.27782 | 37786 ft | 472 kts | 355° |
| 2026-04-28 16:45 | 37.92753 | 24.27428 | 37914 ft | 472 kts | 355° |
| 2026-04-28 16:45 | 37.96039 | 24.27068 | 37988 ft | 472 kts | 355° |
| 2026-04-28 16:46 | 38.02601 | 24.26346 | 38000 ft | 473 kts | 355° |
| 2026-04-28 16:46 | 38.09170 | 24.25619 | 38002 ft | 472 kts | 355° |
| 2026-04-28 16:47 | 38.15685 | 24.24895 | 38004 ft | 472 kts | 355° |
| 2026-04-28 16:47 | 38.22226 | 24.24167 | 37999 ft | 472 kts | 355° |
| 2026-04-28 16:48 | 38.28763 | 24.23438 | 38002 ft | 472 kts | 354° |
| 2026-04-28 16:48 | 38.35306 | 24.22707 | 37997 ft | 469 kts | 354° |
| 2026-04-28 16:49 | 38.41738 | 24.21987 | 37993 ft | 462 kts | 354° |
| 2026-04-28 16:49 | 38.48115 | 24.21273 | 37997 ft | 459 kts | 354° |
| 2026-04-28 16:50 | 38.54023 | 24.20609 | 38000 ft | 457 kts | 354° |
| 2026-04-28 16:50 | 38.60321 | 24.19901 | 38002 ft | 456 kts | 354° |
| 2026-04-28 16:51 | 38.66485 | 24.19206 | 38003 ft | 456 kts | 354° |
| 2026-04-28 16:51 | 38.72820 | 24.18491 | 38004 ft | 457 kts | 354° |
| 2026-04-28 16:52 | 38.78894 | 24.17804 | 38005 ft | 459 kts | 354° |
| 2026-04-28 16:52 | 38.85275 | 24.17081 | 38005 ft | 461 kts | 354° |
| 2026-04-28 16:53 | 38.91681 | 24.16354 | 38003 ft | 463 kts | 354° |
| 2026-04-28 16:53 | 38.98076 | 24.15627 | 38002 ft | 464 kts | 354° |
| 2026-04-28 16:54 | 39.04520 | 24.14894 | 38002 ft | 466 kts | 354° |
| 2026-04-28 16:54 | 39.10981 | 24.14156 | 38025 ft | 465 kts | 354° |
| 2026-04-28 16:54 | 39.13100 | 24.13914 | 38279 ft | 458 kts | 354° |
| 2026-04-28 16:55 | 39.17255 | 24.13434 | 39201 ft | 438 kts | 354° |
| 2026-04-28 16:55 | 39.20245 | 24.13084 | 39587 ft | 425 kts | 354° |
| 2026-04-28 16:55 | 39.23173 | 24.12734 | 39106 ft | 424 kts | 354° |
| 2026-04-28 16:55 | 39.26135 | 24.12374 | 37821 ft | 441 kts | 354° |
| 2026-04-28 16:56 | 39.29305 | 24.11978 | 36393 ft | 462 kts | 354° |
| 2026-04-28 16:56 | 39.32502 | 24.11567 | 36044 ft | 454 kts | 354° |
| 2026-04-28 16:56 | 39.35510 | 24.11171 | 36442 ft | 428 kts | 354° |
| 2026-04-28 16:56 | 39.38428 | 24.10786 | 36791 ft | 416 kts | 354° |
| 2026-04-28 16:57 | 39.41306 | 24.10409 | 36940 ft | 417 kts | 354° |
| 2026-04-28 16:57 | 39.47166 | 24.09667 | 37022 ft | 428 kts | 354° |
| 2026-04-28 16:57 | 39.50137 | 24.09310 | 37202 ft | 429 kts | 354° |
| 2026-04-28 16:58 | 39.53101 | 24.08968 | 37503 ft | 426 kts | 355° |
| 2026-04-28 16:58 | 39.56052 | 24.08645 | 37806 ft | 424 kts | 355° |
| 2026-04-28 16:58 | 39.59000 | 24.08339 | 37964 ft | 425 kts | 355° |
| 2026-04-28 16:59 | 39.64930 | 24.07775 | 37874 ft | 436 kts | 356° |
| 2026-04-28 16:59 | 39.71022 | 24.07266 | 38072 ft | 438 kts | 356° |
| 2026-04-28 16:59 | 39.74058 | 24.07039 | 38363 ft | 434 kts | 356° |
| 2026-04-28 17:00 | 39.77067 | 24.06834 | 38606 ft | 432 kts | 357° |
| 2026-04-28 17:00 | 39.83106 | 24.06480 | 38626 ft | 439 kts | 357° |
| 2026-04-28 17:01 | 39.89273 | 24.06194 | 38608 ft | 446 kts | 358° |
| 2026-04-28 17:01 | 39.92334 | 24.06082 | 38814 ft | 443 kts | 358° |
| 2026-04-28 17:01 | 39.95411 | 24.05989 | 39072 ft | 440 kts | 358° |
| 2026-04-28 17:01 | 39.98461 | 24.05916 | 39242 ft | 439 kts | 359° |
| 2026-04-28 17:02 | 40.01526 | 24.05863 | 39258 ft | 442 kts | 359° |
| 2026-04-28 17:02 | 40.03187 | 24.05842 | 39219 ft | 445 kts | 359° |